createdAt,value
2023-04-15T00:00:20.562Z,73.77
2023-04-15T00:05:21.703Z,72.22
2023-04-15T00:10:21.888Z,71.67
2023-04-15T00:15:23.039Z,72.53
2023-04-15T00:20:24.185Z,73.29
2023-04-15T00:25:25.403Z,73.29
2023-04-15T00:30:26.688Z,73.60
2023-04-15T00:35:27.848Z,74.46
2023-04-15T00:40:28.972Z,73.29
2023-04-15T00:45:30.201Z,72.16
2023-04-15T00:50:31.333Z,72.43
2023-04-15T00:55:32.417Z,71.16
2023-04-15T01:00:33.537Z,71.50
2023-04-15T01:05:34.620Z,72.22
2023-04-15T01:10:35.762Z,72.47
2023-04-15T01:15:37.890Z,71.84
2023-04-15T01:20:37.067Z,72.05
2023-04-15T01:25:38.177Z,71.43
2023-04-15T01:30:39.321Z,71.78
2023-04-15T01:35:40.405Z,71.78
2023-04-15T01:40:41.699Z,71.05
2023-04-15T01:45:42.904Z,71.57
2023-04-15T01:50:44.117Z,72.08
2023-04-15T01:55:46.291Z,72.33
2023-04-15T02:00:45.455Z,73.25
2023-04-15T02:05:46.541Z,73.29
2023-04-15T02:10:47.678Z,74.26
2023-04-15T02:15:49.874Z,74.36
2023-04-15T02:20:48.973Z,74.88
2023-04-15T02:25:53.764Z,74.88
2023-04-15T02:30:51.431Z,74.46
2023-04-15T02:35:52.605Z,73.84
2023-04-15T02:40:54.727Z,73.63
2023-04-15T02:45:53.887Z,73.84
2023-04-15T02:50:55.030Z,74.29
2023-04-15T02:55:56.170Z,73.46
2023-04-15T03:00:57.366Z,73.05
2023-04-15T03:05:58.484Z,72.32
2023-04-15T03:10:59.623Z,72.19
2023-04-15T03:16:45.709Z,72.60
2023-04-15T03:21:01.119Z,72.74
2023-04-15T03:26:02.360Z,72.94
2023-04-15T03:31:03.437Z,73.36
2023-04-15T03:36:04.474Z,73.98
2023-04-15T03:41:05.696Z,74.19
2023-04-15T03:46:06.830Z,74.22
2023-04-15T03:51:07.971Z,74.84
2023-04-15T03:56:09.053Z,75.26
2023-04-15T04:01:10.248Z,75.05
2023-04-15T04:06:12.368Z,73.18
2023-04-15T04:11:11.443Z,73.15
2023-04-15T04:16:12.659Z,71.88
2023-04-15T04:21:13.723Z,71.98
2023-04-15T04:26:14.838Z,73.36
2023-04-15T04:31:16.036Z,73.49
2023-04-15T04:36:17.168Z,73.25
2023-04-15T04:41:18.228Z,71.91
2023-04-15T04:46:19.459Z,71.80
2023-04-15T04:51:20.526Z,70.21
2023-04-15T04:56:21.682Z,70.81
2023-04-15T05:01:22.865Z,70.42
2023-04-15T05:06:24.007Z,71.77
2023-04-15T05:11:25.123Z,72.22
2023-04-15T05:16:26.219Z,72.19
2023-04-15T05:21:27.345Z,72.19
2023-04-15T05:26:28.581Z,71.98
2023-04-15T05:31:29.655Z,71.22
2023-04-15T05:36:32.727Z,70.05
2023-04-15T05:41:31.890Z,68.43
2023-04-15T05:46:33.061Z,68.09
2023-04-15T05:51:34.151Z,67.24
2023-04-15T05:56:35.303Z,66.76
2023-04-15T06:01:36.412Z,66.31
2023-04-15T06:06:37.468Z,65.80
2023-04-15T06:11:39.551Z,65.77
2023-04-15T06:16:38.765Z,63.54
2023-04-15T06:21:40.869Z,65.16
2023-04-15T06:26:39.948Z,64.44
2023-04-15T06:31:43.091Z,63.62
2023-04-15T06:36:42.238Z,63.49
2023-04-15T06:41:43.354Z,62.95
2023-04-15T06:46:44.491Z,61.74
2023-04-15T06:51:46.926Z,60.50
2023-04-15T06:56:46.065Z,60.03
2023-04-15T07:01:47.282Z,64.66
2023-04-15T07:06:49.598Z,62.71
2023-04-15T07:11:48.763Z,63.57
2023-04-15T07:16:49.900Z,62.85
2023-04-15T07:21:51.029Z,61.05
2023-04-15T07:26:53.182Z,61.36
2023-04-15T07:31:53.693Z,61.77
2023-04-15T07:36:52.864Z,59.81
2023-04-15T07:41:53.955Z,58.53
2023-04-15T07:46:57.021Z,57.04
2023-04-15T07:51:57.093Z,54.51
2023-04-15T07:56:56.262Z,59.14
2023-04-15T08:01:58.357Z,55.66
2023-04-15T08:06:57.726Z,54.90
2023-04-15T08:11:59.786Z,55.62
2023-04-15T08:17:00.025Z,54.10
2023-04-15T08:22:00.030Z,54.74
2023-04-15T08:26:59.300Z,54.61
2023-04-15T08:32:00.436Z,52.86
2023-04-15T08:37:02.725Z,53.39
2023-04-15T08:42:01.798Z,51.92
2023-04-15T08:47:03.401Z,51.59
2023-04-15T08:52:04.639Z,50.50
2023-04-15T08:57:05.637Z,50.93
2023-04-15T09:02:06.913Z,49.21
2023-04-15T09:07:08.016Z,49.21
2023-04-15T09:12:09.071Z,49.82
2023-04-15T09:17:11.148Z,49.29
2023-04-15T09:22:10.213Z,46.69
2023-04-15T09:27:11.413Z,48.15
2023-04-15T09:32:12.451Z,47.62
2023-04-15T09:37:24.527Z,46.51
2023-04-15T09:42:14.489Z,47.10
2023-04-15T09:47:15.634Z,48.35
2023-04-15T09:52:17.703Z,44.48
2023-04-15T09:57:16.888Z,46.14
2023-04-15T10:02:19.063Z,42.43
2023-04-15T10:07:18.276Z,46.57
2023-04-15T10:12:19.408Z,46.92
2023-04-15T10:17:20.609Z,46.72
2023-04-15T10:22:21.795Z,47.54
2023-04-15T10:27:22.967Z,43.37
2023-04-15T10:32:24.213Z,40.97
2023-04-15T10:37:26.281Z,45.15
2023-04-15T10:42:26.387Z,43.41
2023-04-15T10:47:26.485Z,42.55
2023-04-15T10:52:25.649Z,43.47
2023-04-15T10:57:26.772Z,44.40
2023-04-15T11:02:28.074Z,45.21
2023-04-15T11:07:31.183Z,47.20
2023-04-15T11:12:30.300Z,49.33
2023-04-15T11:17:31.855Z,49.55
2023-04-15T11:22:30.932Z,48.13
2023-04-15T11:27:32.034Z,48.25
2023-04-15T11:32:35.164Z,48.31
2023-04-15T11:37:35.251Z,51.72
2023-04-15T11:42:48.680Z,52.30
2023-04-15T11:47:34.360Z,52.37
2023-04-15T11:52:35.497Z,53.98
2023-04-15T11:57:36.596Z,51.87
2023-04-15T12:02:37.833Z,50.75
2023-04-15T12:07:38.917Z,53.50
2023-04-15T12:12:40.048Z,49.78
2023-04-15T12:17:51.774Z,50.75
2023-04-15T12:22:41.056Z,50.57
2023-04-15T12:27:42.123Z,51.28
2023-04-15T12:32:43.649Z,51.54
2023-04-15T12:37:42.699Z,53.02
2023-04-15T12:42:43.758Z,53.24
2023-04-15T12:47:45.001Z,51.84
2023-04-15T12:52:46.215Z,49.94
2023-04-15T12:57:47.370Z,51.14
2023-04-15T13:02:48.851Z,51.69
2023-04-15T13:07:48.094Z,52.56
2023-04-15T13:12:49.161Z,50.95
2023-04-15T13:17:50.330Z,49.38
2023-04-15T13:22:52.464Z,49.71
2023-04-15T13:27:52.604Z,47.81
2023-04-15T13:32:51.847Z,48.32
2023-04-15T13:37:53.921Z,51.21
2023-04-15T13:42:52.976Z,49.56
2023-04-15T13:47:54.195Z,48.14
2023-04-15T13:52:55.242Z,50.84
2023-04-15T13:57:57.306Z,46.33
2023-04-15T14:02:56.451Z,45.05
2023-04-15T14:07:57.684Z,47.02
2023-04-15T14:12:59.766Z,46.92
2023-04-15T14:17:58.885Z,45.36
2023-04-15T14:22:59.953Z,46.51
2023-04-15T14:28:01.121Z,44.48
2023-04-15T14:33:03.330Z,45.09
2023-04-15T14:38:04.376Z,45.93
2023-04-15T14:43:03.505Z,46.13
2023-04-15T14:48:04.811Z,49.10
2023-04-15T14:53:07.065Z,51.18
2023-04-15T14:58:06.391Z,50.06
2023-04-15T15:03:07.838Z,51.36
2023-04-15T15:08:07.059Z,49.48
2023-04-15T15:13:08.201Z,46.91
2023-04-15T15:18:09.393Z,46.91
2023-04-15T15:23:10.583Z,50.70
2023-04-15T15:28:11.664Z,53.72
2023-04-15T15:33:12.921Z,53.67
2023-04-15T15:38:14.048Z,53.06
2023-04-15T15:43:16.416Z,54.33
2023-04-15T15:48:14.560Z,52.15
2023-04-15T15:53:16.687Z,53.72
2023-04-15T15:58:15.857Z,55.00
2023-04-15T16:03:17.071Z,55.51
2023-04-15T16:08:18.239Z,56.47
2023-04-15T16:13:20.329Z,57.31
2023-04-15T16:18:19.597Z,58.28
2023-04-15T16:23:20.851Z,56.52
2023-04-15T16:28:26.989Z,58.05
2023-04-15T16:33:21.237Z,58.36
2023-04-15T16:38:22.311Z,59.38
2023-04-15T16:43:23.607Z,55.30
2023-04-15T16:48:24.996Z,55.43
2023-04-15T16:53:26.965Z,57.29
2023-04-15T16:58:27.232Z,59.87
2023-04-15T17:03:26.543Z,56.60
2023-04-15T17:08:27.739Z,61.19
2023-04-15T17:13:28.978Z,61.83
2023-04-15T17:18:30.099Z,61.87
2023-04-15T17:23:31.294Z,66.80
2023-04-15T17:28:32.471Z,78.02
2023-04-15T17:33:59.827Z,87.45
2023-04-15T17:38:35.354Z,93.33
2023-04-15T17:43:35.540Z,97.43
2023-04-15T17:48:35.775Z,99.43
2023-04-15T17:53:36.175Z,99.99
2023-04-15T17:58:37.022Z,99.99
2023-04-15T18:03:36.329Z,99.99
2023-04-15T18:08:39.644Z,99.99
2023-04-15T18:13:41.222Z,99.90
2023-04-15T18:18:40.001Z,99.99
2023-04-15T18:23:41.402Z,99.90
2023-04-15T18:28:42.718Z,99.99
2023-04-15T18:33:44.014Z,99.17
2023-04-15T18:38:46.106Z,98.35
2023-04-15T18:43:45.458Z,98.08
2023-04-15T18:48:47.920Z,99.63
2023-04-15T18:53:48.380Z,99.63
2023-04-15T18:59:28.664Z,99.43
2023-04-15T19:03:50.746Z,99.01
2023-04-15T19:08:48.202Z,98.55
2023-04-15T19:13:48.772Z,98.03
2023-04-15T19:18:47.907Z,97.63
2023-04-15T19:23:49.166Z,97.67
2023-04-15T19:28:51.211Z,99.94
2023-04-15T19:33:52.537Z,99.99
2023-04-15T19:38:52.988Z,99.99
2023-04-15T19:43:53.543Z,99.99
2023-04-15T19:48:53.228Z,98.19
2023-04-15T19:53:53.084Z,99.99
2023-04-15T19:58:54.517Z,99.99
2023-04-15T20:03:58.123Z,99.99
2023-04-15T20:08:55.392Z,99.99
2023-04-15T20:13:57.768Z,99.99
2023-04-15T20:18:56.591Z,99.99
2023-04-15T20:23:56.068Z,99.99
2023-04-15T20:28:56.334Z,99.63
2023-04-15T20:33:56.526Z,99.99
2023-04-15T20:38:55.865Z,99.52
2023-04-15T20:43:57.280Z,99.11
2023-04-15T20:48:58.553Z,98.70
2023-04-15T20:53:59.735Z,99.94
2023-04-15T20:59:01.840Z,99.99
2023-04-15T21:04:01.181Z,99.63
2023-04-15T21:09:04.532Z,99.38
2023-04-15T21:14:02.149Z,99.07
2023-04-15T21:19:03.637Z,99.54
2023-04-15T21:24:02.869Z,99.64
2023-04-15T21:29:08.753Z,99.85
2023-04-15T21:34:03.759Z,99.48
2023-04-15T21:39:05.219Z,99.99
2023-04-15T21:44:05.748Z,99.99
2023-04-15T21:49:07.199Z,99.99
2023-04-15T21:54:05.389Z,99.99
2023-04-15T21:59:04.973Z,99.99
2023-04-15T22:04:04.361Z,99.99
2023-04-15T22:09:06.480Z,99.99
2023-04-15T22:14:05.563Z,99.99
2023-04-15T22:19:06.742Z,99.99
2023-04-15T22:24:31.770Z,99.99
2023-04-15T22:29:09.976Z,99.99
2023-04-15T22:34:09.217Z,99.99
2023-04-15T22:39:11.293Z,99.99
2023-04-15T22:44:10.527Z,99.99
2023-04-15T22:49:12.591Z,99.99
2023-04-15T22:54:12.675Z,99.99
2023-04-15T22:59:11.832Z,99.99
2023-04-15T23:04:23.141Z,99.99
2023-04-15T23:09:13.009Z,99.58
2023-04-15T23:14:15.028Z,99.90
2023-04-15T23:19:14.104Z,98.50
2023-04-15T23:24:15.196Z,99.99
2023-04-15T23:29:16.395Z,99.99
2023-04-15T23:34:19.425Z,99.99
2023-04-15T23:39:18.483Z,99.99
2023-04-15T23:44:20.604Z,99.99
2023-04-15T23:49:20.595Z,99.99
2023-04-15T23:54:19.698Z,99.99
2023-04-15T23:59:21.784Z,99.99
